Piedra, California
Current Conditions -  °F | °C
As of 8:53 PM on Friday 19 Dec 2014 (Local Time) from KFAT Reporting Station
Overcast Overcast  
Wind Chill: 12°   Ceiling: 6500
Heat Index: 12°   Visibility: 10mi
Dew Point:   Wind: 7mph
Humidity: 86%   Direction: 120°ESE
Pressure: 30.18"   Gusts: NA
Location:  36.81°N, 119.38°W
Report Text: KFAT 200453Z 12006KT 10SM BKN065 OVC080 12/09 A3018 RMK AO2 RAB0355E50 SLP220 P0000 T01170094
Loading
Personal Weather Stations






























Interactive Weather Map New forecast layout! Learn more

10-Day Weather Forecast

Advertisements
Track Severe Weather on mobile